Alda, NE

5:56 PM CST on December 19, 2014 (GMT -0600)
Riverside/Barr | Change Station
CLOSE
Current Station
Personal Weather Station
Location: Grand Island, NE
Elevation: 1856 ft
Nearby Weather Stations

Elev 1856 ft 40.90 °N, 98.35 °W | Updated 3 seconds ago

Overcast
Overcast
32.7 °F
Feels Like 33 °F
N
0.0
Wind Variable Wind from SSW
Gusts 0.0 mph

Today
High -- | Low -- °F
--% Chance of Precip.
Yesterday
High -- | Low -- °F
Precip. -- in
7:53 AM 5:08 PM
Waning Crescent, 5% visible
Pressure 30.07 in
Visibility 7.0 miles
Clouds Overcast 1500 ft
Windchill 33 °F
Dew Point 30 °F
Humidity 89%
Rainfall 0.00 in
Snow Depth Not available.
UV 0.0 out of 12
Pollen .10 out of 12
Air Quality Not available.
Flu Activity Not available.
SPECI KGRI 192328Z 17006KT 7SM OVC015 01/M01 A3007 RMK AO2 T00111006

More Conditions Fewer Conditions

Pressure 30.07 in
Visibility 7.0 miles
Clouds Overcast 1500 ft
Windchill 33 °F
Dew Point 30 °F
Humidity 89%
Rainfall 0.00 in
Snow Depth Not available.
UV 0.0 out of 12
Pollen .10 out of 12
Air Quality Not available.
Flu Activity Not available.
SPECI KGRI 192328Z 17006KT 7SM OVC015 01/M01 A3007 RMK AO2 T00111006

More Conditions Fewer Conditions

10-Day Weather Forecast

Almanac

Astronomy

Dec. 19, 2014 Rise Set
Actual Time
Civil Twilight
Nautical Twilight
Astronomical Twilight
Moon
Length of Visible Light
Length of Day
Tomorrow will be .
, % of the Moon is Illuminated

Today's Extremes

State Highs State Lows

Community

WunderPhotos

Upload Photos

1,779,078 photos uploaded!

WunderBlogs® & News

Nearby

Air Quality

  Air Quality AQ Index Pollutant
Not available.

Snow Depth

Station Depth Elevation

Earthquake Activity

City Distance Mag. Time & Date
Minimum magnitude displayed is 2.5.

Coastal Water Temperatures

Place Temperature

Nearby Weather Stations